sensor_id;sensor_type;location;lat;lon;timestamp;temperature;humidity
7708;DHT22;3896;48.758;8.888;2023-04-03T00:00:42;5.60;86.50
7708;DHT22;3896;48.758;8.888;2023-04-03T00:03:08;5.60;86.50
7708;DHT22;3896;48.758;8.888;2023-04-03T00:05:33;5.60;86.50
7708;DHT22;3896;48.758;8.888;2023-04-03T00:07:59;5.60;86.40
7708;DHT22;3896;48.758;8.888;2023-04-03T00:10:25;5.60;86.50
7708;DHT22;3896;48.758;8.888;2023-04-03T00:12:51;5.50;86.40
7708;DHT22;3896;48.758;8.888;2023-04-03T00:15:17;5.60;86.60
7708;DHT22;3896;48.758;8.888;2023-04-03T00:17:42;5.50;86.60
7708;DHT22;3896;48.758;8.888;2023-04-03T00:20:08;5.50;86.50
7708;DHT22;3896;48.758;8.888;2023-04-03T00:22:34;5.50;86.60
7708;DHT22;3896;48.758;8.888;2023-04-03T00:25:00;5.50;86.70
7708;DHT22;3896;48.758;8.888;2023-04-03T00:27:25;5.50;86.90
7708;DHT22;3896;48.758;8.888;2023-04-03T00:29:51;5.50;86.70
7708;DHT22;3896;48.758;8.888;2023-04-03T00:32:17;5.50;86.80
7708;DHT22;3896;48.758;8.888;2023-04-03T00:34:42;5.50;86.90
7708;DHT22;3896;48.758;8.888;2023-04-03T00:37:08;5.40;86.70
7708;DHT22;3896;48.758;8.888;2023-04-03T00:39:33;5.50;86.90
7708;DHT22;3896;48.758;8.888;2023-04-03T00:41:59;5.40;86.90
7708;DHT22;3896;48.758;8.888;2023-04-03T00:46:53;5.40;87.20
7708;DHT22;3896;48.758;8.888;2023-04-03T00:49:19;5.40;87.10
7708;DHT22;3896;48.758;8.888;2023-04-03T00:51:45;5.40;87.20
7708;DHT22;3896;48.758;8.888;2023-04-03T00:54:11;5.40;87.30
7708;DHT22;3896;48.758;8.888;2023-04-03T00:56:37;5.30;87.40
7708;DHT22;3896;48.758;8.888;2023-04-03T00:59:15;5.30;87.30
7708;DHT22;3896;48.758;8.888;2023-04-03T01:01:42;5.30;87.30
7708;DHT22;3896;48.758;8.888;2023-04-03T01:04:32;5.30;87.40
7708;DHT22;3896;48.758;8.888;2023-04-03T01:07:01;5.20;87.10
7708;DHT22;3896;48.758;8.888;2023-04-03T01:09:28;5.20;87.30
7708;DHT22;3896;48.758;8.888;2023-04-03T01:12:19;5.20;87.40
7708;DHT22;3896;48.758;8.888;2023-04-03T01:14:48;5.20;87.30
7708;DHT22;3896;48.758;8.888;2023-04-03T01:17:35;5.20;87.40
7708;DHT22;3896;48.758;8.888;2023-04-03T01:25:41;5.10;87.50
7708;DHT22;3896;48.758;8.888;2023-04-03T01:28:09;5.10;87.60
7708;DHT22;3896;48.758;8.888;2023-04-03T01:30:45;5.10;87.60
7708;DHT22;3896;48.758;8.888;2023-04-03T01:33:12;5.10;87.60
7708;DHT22;3896;48.758;8.888;2023-04-03T01:35:37;5.00;87.50
7708;DHT22;3896;48.758;8.888;2023-04-03T01:38:03;5.00;87.50
7708;DHT22;3896;48.758;8.888;2023-04-03T01:40:29;5.00;87.80
7708;DHT22;3896;48.758;8.888;2023-04-03T01:42:54;5.00;87.90
7708;DHT22;3896;48.758;8.888;2023-04-03T01:45:20;5.00;88.00
7708;DHT22;3896;48.758;8.888;2023-04-03T01:47:46;5.00;87.90
7708;DHT22;3896;48.758;8.888;2023-04-03T01:50:11;5.00;88.10
7708;DHT22;3896;48.758;8.888;2023-04-03T01:52:37;4.90;88.20
7708;DHT22;3896;48.758;8.888;2023-04-03T01:55:03;4.90;88.40
7708;DHT22;3896;48.758;8.888;2023-04-03T01:57:28;4.90;88.60
7708;DHT22;3896;48.758;8.888;2023-04-03T01:59:54;4.90;88.70
7708;DHT22;3896;48.758;8.888;2023-04-03T02:02:19;4.90;88.80
7708;DHT22;3896;48.758;8.888;2023-04-03T02:04:45;4.90;89.00
7708;DHT22;3896;48.758;8.888;2023-04-03T02:07:11;4.90;89.10
7708;DHT22;3896;48.758;8.888;2023-04-03T02:09:37;4.80;89.10
7708;DHT22;3896;48.758;8.888;2023-04-03T02:12:02;4.80;89.20
7708;DHT22;3896;48.758;8.888;2023-04-03T02:14:28;4.80;89.30
7708;DHT22;3896;48.758;8.888;2023-04-03T02:16:54;4.80;89.40
7708;DHT22;3896;48.758;8.888;2023-04-03T02:19:19;4.80;90.10
7708;DHT22;3896;48.758;8.888;2023-04-03T02:21:45;4.80;89.60
7708;DHT22;3896;48.758;8.888;2023-04-03T02:24:10;4.80;89.80
7708;DHT22;3896;48.758;8.888;2023-04-03T02:26:36;4.70;89.90
7708;DHT22;3896;48.758;8.888;2023-04-03T02:29:02;4.70;90.00
7708;DHT22;3896;48.758;8.888;2023-04-03T02:31:28;4.70;90.10
7708;DHT22;3896;48.758;8.888;2023-04-03T02:33:53;4.70;90.10
7708;DHT22;3896;48.758;8.888;2023-04-03T02:36:19;4.70;90.10
7708;DHT22;3896;48.758;8.888;2023-04-03T02:38:44;4.70;90.20
7708;DHT22;3896;48.758;8.888;2023-04-03T02:41:12;4.70;90.20
7708;DHT22;3896;48.758;8.888;2023-04-03T02:43:38;4.60;90.30
7708;DHT22;3896;48.758;8.888;2023-04-03T02:46:04;4.60;90.30
7708;DHT22;3896;48.758;8.888;2023-04-03T02:48:31;4.60;90.40
7708;DHT22;3896;48.758;8.888;2023-04-03T02:50:57;4.60;90.40
7708;DHT22;3896;48.758;8.888;2023-04-03T02:53:22;4.60;90.50
7708;DHT22;3896;48.758;8.888;2023-04-03T02:55:48;4.60;90.60
7708;DHT22;3896;48.758;8.888;2023-04-03T02:58:14;4.60;90.60
7708;DHT22;3896;48.758;8.888;2023-04-03T03:00:39;4.60;90.70
7708;DHT22;3896;48.758;8.888;2023-04-03T03:03:05;4.60;90.80
7708;DHT22;3896;48.758;8.888;2023-04-03T03:05:30;4.60;90.80
7708;DHT22;3896;48.758;8.888;2023-04-03T03:07:56;4.50;90.70
7708;DHT22;3896;48.758;8.888;2023-04-03T03:10:22;4.60;90.80
7708;DHT22;3896;48.758;8.888;2023-04-03T03:12:49;4.50;90.70
7708;DHT22;3896;48.758;8.888;2023-04-03T03:15:15;4.50;90.70
7708;DHT22;3896;48.758;8.888;2023-04-03T03:17:41;4.50;90.70
7708;DHT22;3896;48.758;8.888;2023-04-03T03:20:07;4.50;90.70
7708;DHT22;3896;48.758;8.888;2023-04-03T03:22:33;4.50;90.70
7708;DHT22;3896;48.758;8.888;2023-04-03T03:24:59;4.50;90.70
7708;DHT22;3896;48.758;8.888;2023-04-03T03:27:26;4.50;90.60
7708;DHT22;3896;48.758;8.888;2023-04-03T03:29:51;4.50;90.70
7708;DHT22;3896;48.758;8.888;2023-04-03T03:32:17;4.50;90.70
7708;DHT22;3896;48.758;8.888;2023-04-03T03:34:43;4.50;90.80
7708;DHT22;3896;48.758;8.888;2023-04-03T03:37:08;4.50;90.80
7708;DHT22;3896;48.758;8.888;2023-04-03T03:39:34;4.50;90.80
7708;DHT22;3896;48.758;8.888;2023-04-03T03:41:59;4.50;90.90
7708;DHT22;3896;48.758;8.888;2023-04-03T03:44:25;4.50;90.90
7708;DHT22;3896;48.758;8.888;2023-04-03T03:46:51;4.40;90.80
7708;DHT22;3896;48.758;8.888;2023-04-03T03:49:16;4.40;90.80
7708;DHT22;3896;48.758;8.888;2023-04-03T03:51:42;4.40;90.90
7708;DHT22;3896;48.758;8.888;2023-04-03T03:54:07;4.40;90.90
7708;DHT22;3896;48.758;8.888;2023-04-03T03:56:33;4.40;91.00
7708;DHT22;3896;48.758;8.888;2023-04-03T03:58:59;4.40;91.00
7708;DHT22;3896;48.758;8.888;2023-04-03T04:01:25;4.40;91.00
7708;DHT22;3896;48.758;8.888;2023-04-03T04:03:51;4.40;91.00
7708;DHT22;3896;48.758;8.888;2023-04-03T04:06:19;4.40;91.00
7708;DHT22;3896;48.758;8.888;2023-04-03T04:08:44;4.40;91.00
7708;DHT22;3896;48.758;8.888;2023-04-03T04:11:10;4.40;91.10
7708;DHT22;3896;48.758;8.888;2023-04-03T04:13:36;4.40;91.10
7708;DHT22;3896;48.758;8.888;2023-04-03T04:16:02;4.40;91.10
7708;DHT22;3896;48.758;8.888;2023-04-03T04:18:27;4.40;91.10
7708;DHT22;3896;48.758;8.888;2023-04-03T04:20:53;4.40;91.00
7708;DHT22;3896;48.758;8.888;2023-04-03T04:23:18;4.40;90.90
7708;DHT22;3896;48.758;8.888;2023-04-03T04:25:47;4.40;90.90
7708;DHT22;3896;48.758;8.888;2023-04-03T04:28:13;4.40;90.80
7708;DHT22;3896;48.758;8.888;2023-04-03T04:30:39;4.40;90.70
7708;DHT22;3896;48.758;8.888;2023-04-03T04:33:05;4.40;90.70
7708;DHT22;3896;48.758;8.888;2023-04-03T04:35:32;4.40;90.70
7708;DHT22;3896;48.758;8.888;2023-04-03T04:37:57;4.40;90.60
7708;DHT22;3896;48.758;8.888;2023-04-03T04:40:23;4.40;90.60
7708;DHT22;3896;48.758;8.888;2023-04-03T04:42:49;4.40;90.50
7708;DHT22;3896;48.758;8.888;2023-04-03T04:45:14;4.40;90.40
7708;DHT22;3896;48.758;8.888;2023-04-03T04:47:41;4.40;90.30
7708;DHT22;3896;48.758;8.888;2023-04-03T04:50:07;4.40;90.20
7708;DHT22;3896;48.758;8.888;2023-04-03T04:52:32;4.40;90.20
7708;DHT22;3896;48.758;8.888;2023-04-03T04:54:58;4.40;90.10
7708;DHT22;3896;48.758;8.888;2023-04-03T04:57:23;4.40;90.10
7708;DHT22;3896;48.758;8.888;2023-04-03T04:59:49;4.40;90.10
7708;DHT22;3896;48.758;8.888;2023-04-03T05:02:15;4.40;90.10
7708;DHT22;3896;48.758;8.888;2023-04-03T05:04:40;4.40;90.00
7708;DHT22;3896;48.758;8.888;2023-04-03T05:07:06;4.40;89.80
7708;DHT22;3896;48.758;8.888;2023-04-03T05:09:31;4.40;89.70
7708;DHT22;3896;48.758;8.888;2023-04-03T05:11:57;4.40;89.50
7708;DHT22;3896;48.758;8.888;2023-04-03T05:14:23;4.40;89.20
7708;DHT22;3896;48.758;8.888;2023-04-03T05:16:48;4.40;89.10
7708;DHT22;3896;48.758;8.888;2023-04-03T05:19:18;4.40;88.80
7708;DHT22;3896;48.758;8.888;2023-04-03T05:21:43;4.40;88.60
7708;DHT22;3896;48.758;8.888;2023-04-03T05:24:09;4.40;88.30
7708;DHT22;3896;48.758;8.888;2023-04-03T05:26:35;4.40;88.40
7708;DHT22;3896;48.758;8.888;2023-04-03T05:29:00;4.40;88.30
7708;DHT22;3896;48.758;8.888;2023-04-03T05:31:26;4.40;88.20
7708;DHT22;3896;48.758;8.888;2023-04-03T05:33:55;4.40;88.20
7708;DHT22;3896;48.758;8.888;2023-04-03T05:36:20;4.40;88.20
7708;DHT22;3896;48.758;8.888;2023-04-03T05:38:47;4.40;87.90
7708;DHT22;3896;48.758;8.888;2023-04-03T05:41:13;4.40;87.80
7708;DHT22;3896;48.758;8.888;2023-04-03T05:43:38;4.40;87.50
7708;DHT22;3896;48.758;8.888;2023-04-03T05:46:12;4.40;88.00
7708;DHT22;3896;48.758;8.888;2023-04-03T05:48:37;4.40;87.00
7708;DHT22;3896;48.758;8.888;2023-04-03T05:51:04;4.40;86.90
7708;DHT22;3896;48.758;8.888;2023-04-03T05:53:32;4.40;86.70
7708;DHT22;3896;48.758;8.888;2023-04-03T05:55:58;4.40;86.40
7708;DHT22;3896;48.758;8.888;2023-04-03T05:58:24;4.40;86.10
7708;DHT22;3896;48.758;8.888;2023-04-03T06:00:49;4.40;86.20
7708;DHT22;3896;48.758;8.888;2023-04-03T06:03:15;4.40;85.80
7708;DHT22;3896;48.758;8.888;2023-04-03T06:05:41;4.40;85.50
7708;DHT22;3896;48.758;8.888;2023-04-03T06:08:07;4.40;85.60
7708;DHT22;3896;48.758;8.888;2023-04-03T06:10:34;4.50;85.70
7708;DHT22;3896;48.758;8.888;2023-04-03T06:13:00;4.50;85.60
7708;DHT22;3896;48.758;8.888;2023-04-03T06:15:26;4.50;85.60
7708;DHT22;3896;48.758;8.888;2023-04-03T06:17:52;4.50;85.50
7708;DHT22;3896;48.758;8.888;2023-04-03T06:20:18;4.60;85.60
7708;DHT22;3896;48.758;8.888;2023-04-03T06:22:43;4.60;85.40
7708;DHT22;3896;48.758;8.888;2023-04-03T06:25:09;4.60;85.30
7708;DHT22;3896;48.758;8.888;2023-04-03T06:27:35;4.60;85.40
7708;DHT22;3896;48.758;8.888;2023-04-03T06:30:01;4.70;85.50
7708;DHT22;3896;48.758;8.888;2023-04-03T06:32:26;4.70;85.50
7708;DHT22;3896;48.758;8.888;2023-04-03T06:34:52;4.70;85.20
7708;DHT22;3896;48.758;8.888;2023-04-03T06:37:21;4.70;85.10
7708;DHT22;3896;48.758;8.888;2023-04-03T06:39:47;4.70;84.90
7708;DHT22;3896;48.758;8.888;2023-04-03T06:42:12;4.70;84.80
7708;DHT22;3896;48.758;8.888;2023-04-03T06:44:38;4.80;85.20
7708;DHT22;3896;48.758;8.888;2023-04-03T06:47:04;4.80;85.00
7708;DHT22;3896;48.758;8.888;2023-04-03T06:49:30;4.80;84.60
7708;DHT22;3896;48.758;8.888;2023-04-03T06:51:56;4.90;84.90
7708;DHT22;3896;48.758;8.888;2023-04-03T06:54:22;4.90;84.60
7708;DHT22;3896;48.758;8.888;2023-04-03T06:56:48;4.90;84.50
7708;DHT22;3896;48.758;8.888;2023-04-03T06:59:14;4.90;84.40
7708;DHT22;3896;48.758;8.888;2023-04-03T07:01:41;5.00;84.60
7708;DHT22;3896;48.758;8.888;2023-04-03T07:04:07;5.00;84.50
7708;DHT22;3896;48.758;8.888;2023-04-03T07:06:33;5.00;84.80
7708;DHT22;3896;48.758;8.888;2023-04-03T07:08:59;5.10;85.00
7708;DHT22;3896;48.758;8.888;2023-04-03T07:11:24;5.10;85.00
7708;DHT22;3896;48.758;8.888;2023-04-03T07:13:51;5.10;84.70
7708;DHT22;3896;48.758;8.888;2023-04-03T07:16:17;5.20;84.60
7708;DHT22;3896;48.758;8.888;2023-04-03T07:18:43;5.30;84.90
7708;DHT22;3896;48.758;8.888;2023-04-03T07:21:10;5.30;84.90
7708;DHT22;3896;48.758;8.888;2023-04-03T07:23:36;5.40;84.80
7708;DHT22;3896;48.758;8.888;2023-04-03T07:26:01;5.40;84.60
7708;DHT22;3896;48.758;8.888;2023-04-03T07:28:27;5.50;84.70
7708;DHT22;3896;48.758;8.888;2023-04-03T07:30:59;5.50;84.40
7708;DHT22;3896;48.758;8.888;2023-04-03T07:33:25;5.60;84.30
7708;DHT22;3896;48.758;8.888;2023-04-03T07:35:51;5.60;84.30
7708;DHT22;3896;48.758;8.888;2023-04-03T07:38:17;5.60;83.90
7708;DHT22;3896;48.758;8.888;2023-04-03T07:40:47;5.70;83.80
7708;DHT22;3896;48.758;8.888;2023-04-03T07:43:14;5.70;83.30
7708;DHT22;3896;48.758;8.888;2023-04-03T07:45:40;5.80;83.70
7708;DHT22;3896;48.758;8.888;2023-04-03T07:48:05;5.80;83.40
7708;DHT22;3896;48.758;8.888;2023-04-03T07:50:32;5.90;83.30
7708;DHT22;3896;48.758;8.888;2023-04-03T07:52:57;5.90;83.00
7708;DHT22;3896;48.758;8.888;2023-04-03T07:55:24;6.00;82.90
7708;DHT22;3896;48.758;8.888;2023-04-03T07:57:49;6.00;82.80
7708;DHT22;3896;48.758;8.888;2023-04-03T08:00:16;6.10;82.90
7708;DHT22;3896;48.758;8.888;2023-04-03T08:02:43;6.10;83.70
7708;DHT22;3896;48.758;8.888;2023-04-03T08:05:10;6.20;83.00
7708;DHT22;3896;48.758;8.888;2023-04-03T08:07:38;6.20;82.70
7708;DHT22;3896;48.758;8.888;2023-04-03T08:10:04;6.30;82.80
7708;DHT22;3896;48.758;8.888;2023-04-03T08:12:29;6.30;82.60
7708;DHT22;3896;48.758;8.888;2023-04-03T08:14:57;6.40;82.40
7708;DHT22;3896;48.758;8.888;2023-04-03T08:17:22;6.50;82.40
7708;DHT22;3896;48.758;8.888;2023-04-03T08:19:48;6.60;82.00
7708;DHT22;3896;48.758;8.888;2023-04-03T08:22:14;6.60;81.60
7708;DHT22;3896;48.758;8.888;2023-04-03T08:24:41;6.70;81.20
7708;DHT22;3896;48.758;8.888;2023-04-03T08:27:06;6.70;81.10
7708;DHT22;3896;48.758;8.888;2023-04-03T08:29:32;6.80;81.40
7708;DHT22;3896;48.758;8.888;2023-04-03T08:31:59;6.80;81.00
7708;DHT22;3896;48.758;8.888;2023-04-03T08:34:25;6.90;81.00
7708;DHT22;3896;48.758;8.888;2023-04-03T08:36:51;6.90;80.50
7708;DHT22;3896;48.758;8.888;2023-04-03T08:39:16;7.00;80.40
7708;DHT22;3896;48.758;8.888;2023-04-03T08:41:44;7.10;80.30
7708;DHT22;3896;48.758;8.888;2023-04-03T08:47:20;7.20;80.60
7708;DHT22;3896;48.758;8.888;2023-04-03T08:50:14;7.20;80.30
7708;DHT22;3896;48.758;8.888;2023-04-03T08:52:56;7.30;80.20
7708;DHT22;3896;48.758;8.888;2023-04-03T08:58:03;7.50;79.50
7708;DHT22;3896;48.758;8.888;2023-04-03T09:00:48;7.50;78.70
7708;DHT22;3896;48.758;8.888;2023-04-03T09:03:17;7.50;78.50
7708;DHT22;3896;48.758;8.888;2023-04-03T09:06:08;7.60;78.80
7708;DHT22;3896;48.758;8.888;2023-04-03T09:08:47;7.70;79.00
7708;DHT22;3896;48.758;8.888;2023-04-03T09:11:27;7.70;78.90
7708;DHT22;3896;48.758;8.888;2023-04-03T09:14:09;7.90;79.10
7708;DHT22;3896;48.758;8.888;2023-04-03T09:16:56;8.00;78.70
7708;DHT22;3896;48.758;8.888;2023-04-03T09:19:35;8.00;77.90
7708;DHT22;3896;48.758;8.888;2023-04-03T09:22:28;8.10;77.50
7708;DHT22;3896;48.758;8.888;2023-04-03T09:25:17;8.20;77.40
7708;DHT22;3896;48.758;8.888;2023-04-03T09:27:44;8.20;76.70
7708;DHT22;3896;48.758;8.888;2023-04-03T09:30:14;8.30;76.00
7708;DHT22;3896;48.758;8.888;2023-04-03T09:32:41;8.40;76.20
7708;DHT22;3896;48.758;8.888;2023-04-03T09:37:44;8.60;75.60
7708;DHT22;3896;48.758;8.888;2023-04-03T09:42:55;8.60;73.70
7708;DHT22;3896;48.758;8.888;2023-04-03T09:45:27;8.70;74.00
7708;DHT22;3896;48.758;8.888;2023-04-03T09:48:16;8.80;73.40
7708;DHT22;3896;48.758;8.888;2023-04-03T09:55:59;8.90;72.70
7708;DHT22;3896;48.758;8.888;2023-04-03T10:00:59;9.00;72.30
7708;DHT22;3896;48.758;8.888;2023-04-03T10:03:29;9.10;71.70
7708;DHT22;3896;48.758;8.888;2023-04-03T10:05:56;9.20;71.60
7708;DHT22;3896;48.758;8.888;2023-04-03T10:08:26;9.20;71.30
7708;DHT22;3896;48.758;8.888;2023-04-03T10:11:16;9.30;71.10
7708;DHT22;3896;48.758;8.888;2023-04-03T10:13:59;9.30;70.00
7708;DHT22;3896;48.758;8.888;2023-04-03T10:16:32;9.40;68.80
7708;DHT22;3896;48.758;8.888;2023-04-03T10:22:59;9.30;67.30
7708;DHT22;3896;48.758;8.888;2023-04-03T10:41:34;9.50;65.70
7708;DHT22;3896;48.758;8.888;2023-04-03T10:46:58;9.50;64.10
7708;DHT22;3896;48.758;8.888;2023-04-03T10:57:54;9.40;63.00
7708;DHT22;3896;48.758;8.888;2023-04-03T11:00:43;9.40;62.60
7708;DHT22;3896;48.758;8.888;2023-04-03T11:03:21;9.30;62.10
7708;DHT22;3896;48.758;8.888;2023-04-03T11:05:51;9.30;62.10
7708;DHT22;3896;48.758;8.888;2023-04-03T11:08:28;9.30;62.10
7708;DHT22;3896;48.758;8.888;2023-04-03T11:11:32;9.30;62.60
7708;DHT22;3896;48.758;8.888;2023-04-03T11:14:10;9.30;62.90
7708;DHT22;3896;48.758;8.888;2023-04-03T11:16:45;9.40;62.80
7708;DHT22;3896;48.758;8.888;2023-04-03T11:19:21;9.40;62.30
7708;DHT22;3896;48.758;8.888;2023-04-03T11:22:05;9.40;62.40
7708;DHT22;3896;48.758;8.888;2023-04-03T11:24:36;9.30;61.90
7708;DHT22;3896;48.758;8.888;2023-04-03T11:27:04;9.40;62.10
7708;DHT22;3896;48.758;8.888;2023-04-03T11:29:34;9.40;61.50
7708;DHT22;3896;48.758;8.888;2023-04-03T11:34:49;9.40;60.30
7708;DHT22;3896;48.758;8.888;2023-04-03T11:37:31;9.40;60.50
7708;DHT22;3896;48.758;8.888;2023-04-03T11:43:40;9.20;59.40
7708;DHT22;3896;48.758;8.888;2023-04-03T11:46:01;9.20;59.70
7708;DHT22;3896;48.758;8.888;2023-04-03T11:53:53;9.10;59.60
7708;DHT22;3896;48.758;8.888;2023-04-03T12:04:13;9.10;59.80
7708;DHT22;3896;48.758;8.888;2023-04-03T12:09:32;9.20;59.10
7708;DHT22;3896;48.758;8.888;2023-04-03T12:12:00;9.10;58.60
7708;DHT22;3896;48.758;8.888;2023-04-03T12:14:28;9.20;58.70
7708;DHT22;3896;48.758;8.888;2023-04-03T12:16:55;9.20;58.80
7708;DHT22;3896;48.758;8.888;2023-04-03T12:19:39;9.20;58.70
7708;DHT22;3896;48.758;8.888;2023-04-03T12:24:42;9.10;58.40
7708;DHT22;3896;48.758;8.888;2023-04-03T12:27:23;9.20;58.80
7708;DHT22;3896;48.758;8.888;2023-04-03T12:35:26;9.20;58.50
7708;DHT22;3896;48.758;8.888;2023-04-03T12:43:43;9.20;59.10
7708;DHT22;3896;48.758;8.888;2023-04-03T12:46:17;9.30;58.60
7708;DHT22;3896;48.758;8.888;2023-04-03T12:48:57;9.30;58.40
7708;DHT22;3896;48.758;8.888;2023-04-03T12:51:37;9.30;58.40
7708;DHT22;3896;48.758;8.888;2023-04-03T12:54:36;9.40;57.90
7708;DHT22;3896;48.758;8.888;2023-04-03T12:57:24;9.40;57.90
7708;DHT22;3896;48.758;8.888;2023-04-03T12:59:50;9.40;57.50
7708;DHT22;3896;48.758;8.888;2023-04-03T13:02:36;9.50;56.90
7708;DHT22;3896;48.758;8.888;2023-04-03T13:05:09;9.40;56.50
7708;DHT22;3896;48.758;8.888;2023-04-03T13:07:40;9.50;56.70
7708;DHT22;3896;48.758;8.888;2023-04-03T13:12:33;9.50;56.10
7708;DHT22;3896;48.758;8.888;2023-04-03T13:15:11;9.50;56.40
7708;DHT22;3896;48.758;8.888;2023-04-03T13:17:42;9.60;56.20
7708;DHT22;3896;48.758;8.888;2023-04-03T13:20:21;9.60;55.90
7708;DHT22;3896;48.758;8.888;2023-04-03T13:22:55;9.60;55.60
7708;DHT22;3896;48.758;8.888;2023-04-03T13:25:25;9.60;55.30
7708;DHT22;3896;48.758;8.888;2023-04-03T13:27:52;9.60;55.20
7708;DHT22;3896;48.758;8.888;2023-04-03T13:30:38;9.70;55.90
7708;DHT22;3896;48.758;8.888;2023-04-03T13:33:26;9.70;55.10
7708;DHT22;3896;48.758;8.888;2023-04-03T13:36:07;9.70;55.60
7708;DHT22;3896;48.758;8.888;2023-04-03T13:38:34;9.70;55.40
7708;DHT22;3896;48.758;8.888;2023-04-03T13:41:27;9.70;55.50
7708;DHT22;3896;48.758;8.888;2023-04-03T13:43:54;9.70;55.60
7708;DHT22;3896;48.758;8.888;2023-04-03T13:48:47;9.80;55.90
7708;DHT22;3896;48.758;8.888;2023-04-03T13:53:55;9.90;55.60
7708;DHT22;3896;48.758;8.888;2023-04-03T14:01:22;9.90;55.90
7708;DHT22;3896;48.758;8.888;2023-04-03T14:04:00;9.90;55.60
7708;DHT22;3896;48.758;8.888;2023-04-03T14:06:26;10.00;54.60
7708;DHT22;3896;48.758;8.888;2023-04-03T14:08:52;10.00;54.30
7708;DHT22;3896;48.758;8.888;2023-04-03T14:11:21;10.00;54.50
7708;DHT22;3896;48.758;8.888;2023-04-03T14:13:48;10.10;54.30
7708;DHT22;3896;48.758;8.888;2023-04-03T14:16:20;10.10;54.50
7708;DHT22;3896;48.758;8.888;2023-04-03T14:18:47;10.20;54.70
7708;DHT22;3896;48.758;8.888;2023-04-03T14:21:15;10.20;54.50
7708;DHT22;3896;48.758;8.888;2023-04-03T14:23:43;10.30;53.90
7708;DHT22;3896;48.758;8.888;2023-04-03T14:26:17;10.30;53.50
7708;DHT22;3896;48.758;8.888;2023-04-03T14:28:44;10.20;53.20
7708;DHT22;3896;48.758;8.888;2023-04-03T14:31:12;10.30;52.60
7708;DHT22;3896;48.758;8.888;2023-04-03T14:33:38;10.30;52.50
7708;DHT22;3896;48.758;8.888;2023-04-03T14:36:15;10.30;52.60
7708;DHT22;3896;48.758;8.888;2023-04-03T14:38:42;10.30;52.70
7708;DHT22;3896;48.758;8.888;2023-04-03T14:41:12;10.40;52.60
7708;DHT22;3896;48.758;8.888;2023-04-03T14:43:38;10.40;52.40
7708;DHT22;3896;48.758;8.888;2023-04-03T14:46:04;10.40;52.00
7708;DHT22;3896;48.758;8.888;2023-04-03T14:48:30;10.50;52.00
7708;DHT22;3896;48.758;8.888;2023-04-03T14:50:56;10.50;51.90
7708;DHT22;3896;48.758;8.888;2023-04-03T14:53:22;10.50;51.90
7708;DHT22;3896;48.758;8.888;2023-04-03T14:55:50;10.50;51.80
7708;DHT22;3896;48.758;8.888;2023-04-03T14:58:18;10.50;51.70
7708;DHT22;3896;48.758;8.888;2023-04-03T15:00:44;10.50;51.80
7708;DHT22;3896;48.758;8.888;2023-04-03T15:03:15;10.50;52.10
7708;DHT22;3896;48.758;8.888;2023-04-03T15:05:42;10.50;51.80
7708;DHT22;3896;48.758;8.888;2023-04-03T15:08:22;10.50;51.60
7708;DHT22;3896;48.758;8.888;2023-04-03T15:10:49;10.50;51.20
7708;DHT22;3896;48.758;8.888;2023-04-03T15:13:18;10.50;51.40
7708;DHT22;3896;48.758;8.888;2023-04-03T15:15:44;10.40;51.70
7708;DHT22;3896;48.758;8.888;2023-04-03T15:18:24;10.40;50.60
7708;DHT22;3896;48.758;8.888;2023-04-03T15:20:52;10.30;50.40
7708;DHT22;3896;48.758;8.888;2023-04-03T15:23:18;10.30;50.20
7708;DHT22;3896;48.758;8.888;2023-04-03T15:25:48;10.30;50.00
7708;DHT22;3896;48.758;8.888;2023-04-03T15:28:23;10.20;50.40
7708;DHT22;3896;48.758;8.888;2023-04-03T15:30:50;10.30;50.50
7708;DHT22;3896;48.758;8.888;2023-04-03T15:33:16;10.30;50.50
7708;DHT22;3896;48.758;8.888;2023-04-03T15:35:42;10.40;49.80
7708;DHT22;3896;48.758;8.888;2023-04-03T15:38:08;10.40;50.00
7708;DHT22;3896;48.758;8.888;2023-04-03T15:40:34;10.50;50.20
7708;DHT22;3896;48.758;8.888;2023-04-03T15:42:59;10.60;50.30
7708;DHT22;3896;48.758;8.888;2023-04-03T15:45:28;10.60;49.80
7708;DHT22;3896;48.758;8.888;2023-04-03T15:47:54;10.70;49.80
7708;DHT22;3896;48.758;8.888;2023-04-03T15:50:20;10.70;49.70
7708;DHT22;3896;48.758;8.888;2023-04-03T15:52:48;10.70;48.70
7708;DHT22;3896;48.758;8.888;2023-04-03T15:55:16;10.80;48.30
7708;DHT22;3896;48.758;8.888;2023-04-03T15:57:42;10.80;48.20
7708;DHT22;3896;48.758;8.888;2023-04-03T16:00:08;10.70;48.50
7708;DHT22;3896;48.758;8.888;2023-04-03T16:02:34;10.70;48.60
7708;DHT22;3896;48.758;8.888;2023-04-03T16:05:00;10.80;48.30
7708;DHT22;3896;48.758;8.888;2023-04-03T16:07:26;10.80;48.10
7708;DHT22;3896;48.758;8.888;2023-04-03T16:09:52;10.80;47.70
7708;DHT22;3896;48.758;8.888;2023-04-03T16:12:18;10.80;48.00
7708;DHT22;3896;48.758;8.888;2023-04-03T16:14:43;10.80;47.80
7708;DHT22;3896;48.758;8.888;2023-04-03T16:17:09;10.70;47.50
7708;DHT22;3896;48.758;8.888;2023-04-03T16:19:34;10.70;47.50
7708;DHT22;3896;48.758;8.888;2023-04-03T16:22:00;10.70;47.80
7708;DHT22;3896;48.758;8.888;2023-04-03T16:24:26;10.70;47.70
7708;DHT22;3896;48.758;8.888;2023-04-03T16:26:52;10.60;47.30
7708;DHT22;3896;48.758;8.888;2023-04-03T16:29:18;10.60;47.10
7708;DHT22;3896;48.758;8.888;2023-04-03T16:31:44;10.50;47.20
7708;DHT22;3896;48.758;8.888;2023-04-03T16:34:09;10.40;47.50
7708;DHT22;3896;48.758;8.888;2023-04-03T16:36:35;10.30;47.70
7708;DHT22;3896;48.758;8.888;2023-04-03T16:39:03;10.30;48.10
7708;DHT22;3896;48.758;8.888;2023-04-03T16:41:28;10.20;48.10
7708;DHT22;3896;48.758;8.888;2023-04-03T16:43:54;10.10;48.10
7708;DHT22;3896;48.758;8.888;2023-04-03T16:46:20;10.10;48.10
7708;DHT22;3896;48.758;8.888;2023-04-03T16:48:45;10.00;48.10
7708;DHT22;3896;48.758;8.888;2023-04-03T16:51:12;9.90;49.00
7708;DHT22;3896;48.758;8.888;2023-04-03T16:53:38;9.90;49.00
7708;DHT22;3896;48.758;8.888;2023-04-03T16:56:04;9.80;48.90
7708;DHT22;3896;48.758;8.888;2023-04-03T16:58:29;9.80;49.10
7708;DHT22;3896;48.758;8.888;2023-04-03T17:00:55;9.70;49.10
7708;DHT22;3896;48.758;8.888;2023-04-03T17:03:21;9.70;49.40
7708;DHT22;3896;48.758;8.888;2023-04-03T17:05:48;9.60;49.30
7708;DHT22;3896;48.758;8.888;2023-04-03T17:08:15;9.60;49.20
7708;DHT22;3896;48.758;8.888;2023-04-03T17:10:41;9.60;49.40
7708;DHT22;3896;48.758;8.888;2023-04-03T17:13:06;9.60;49.20
7708;DHT22;3896;48.758;8.888;2023-04-03T17:15:33;9.50;49.50
7708;DHT22;3896;48.758;8.888;2023-04-03T17:17:58;9.50;49.20
7708;DHT22;3896;48.758;8.888;2023-04-03T17:20:24;9.40;49.30
7708;DHT22;3896;48.758;8.888;2023-04-03T17:22:50;9.30;49.50
7708;DHT22;3896;48.758;8.888;2023-04-03T17:25:16;9.30;49.60
7708;DHT22;3896;48.758;8.888;2023-04-03T17:27:41;9.20;49.60
7708;DHT22;3896;48.758;8.888;2023-04-03T17:30:08;9.20;49.40
7708;DHT22;3896;48.758;8.888;2023-04-03T17:32:33;9.10;49.60
7708;DHT22;3896;48.758;8.888;2023-04-03T17:34:59;9.10;49.60
7708;DHT22;3896;48.758;8.888;2023-04-03T17:37:24;9.00;49.60
7708;DHT22;3896;48.758;8.888;2023-04-03T17:39:50;9.00;49.60
7708;DHT22;3896;48.758;8.888;2023-04-03T17:42:15;8.90;49.50
7708;DHT22;3896;48.758;8.888;2023-04-03T17:44:41;8.80;49.70
7708;DHT22;3896;48.758;8.888;2023-04-03T17:47:07;8.70;49.80
7708;DHT22;3896;48.758;8.888;2023-04-03T17:49:32;8.70;49.90
7708;DHT22;3896;48.758;8.888;2023-04-03T17:51:58;8.60;50.00
7708;DHT22;3896;48.758;8.888;2023-04-03T17:54:24;8.50;50.10
7708;DHT22;3896;48.758;8.888;2023-04-03T17:56:49;8.50;50.40
7708;DHT22;3896;48.758;8.888;2023-04-03T17:59:16;8.40;50.50
7708;DHT22;3896;48.758;8.888;2023-04-03T18:01:46;8.30;50.60
7708;DHT22;3896;48.758;8.888;2023-04-03T18:04:12;8.30;50.80
7708;DHT22;3896;48.758;8.888;2023-04-03T18:06:41;8.20;50.90
7708;DHT22;3896;48.758;8.888;2023-04-03T18:09:14;8.10;51.00